Etusivu
METAR-TAF:

METAR-TAF

Lentoasemat :

Mexicali, Meksiko

Leveyspiiri: 32-37-50N, Pituuspiiri: 115-14-30W, korkeus merenpinnasta: 22 m

Tämänhetkinen sää

Tämä raportti tehtiin 3 tuntia ja 29 minuuttia sitten, kello 08.47 UTC
Tuuli 4 kn lännestä
Lämpötila 11°C
Kosteus 71%
Ilmanpaine 1021 hPa
Näkyvyys: 16.1 km
selkeää

METAR: MMML 230847Z 28004KT 10SM SKC 11/06 A3014 RMK SLP207 57003 907

Aika: 06:16 (12:16 UTC)

Sääennuste

Tämä raportti tehtiin 6 tuntia ja 39 minuuttia sitten, kello 05.37 UTC
Ennuste voimassa 23. päivästä klo 06 UTC - 24. päivään klo 06 UTC
Tuuli 5 kn pohjoisesta
Näkyvyys: 10 km
selkeää
From 23. päivästä klo 1800 UTC
Tuuli 10 kn pohjoisesta/koillisesta
Näkyvyys: 10 km
Hajanaisia pilviä 22000 ft:n korkeudessa
Tulossa
24. päivästä klo 03 UTC - 24. päivään klo 05 UTC
Tuuli 8 kn pohjoisesta
selkeää

TAF: MMML 230537Z 2306/2406 35005KT P6SM SKC FM231800 03010KT P6SM SCT220 BECMG 2403/2405 01008KT SKC

Säähavainnot ja -ennusteet yli 4000 lentoasemalta (METAR- ja TAF-raportit).

Käytössä olevat sääasemat on merkitty karttaan keltaisilla ja punaisilla pisteillä.

Aseta hiiri pisteen päälle nähdäksesi sääaseman nimen.

Klikkaa sitten nähdäksesi säähavainnot ja -ennusteet.

Kartan vaihtaminen: klikkaa mustalla rastilla varustettuja vihreitä pisteitä, niin voit zoomata sisään; viivalla varustettua vihreää pistettä, niin voit zoomata ulos tai vihreitä nuolia, niin pääset viereisille kartoille.


METAR-TAF: